createdAt,value
2023-03-05T00:00:27.198Z,28.27
2023-03-05T00:02:53.686Z,28.17
2023-03-05T00:05:20.016Z,28.36
2023-03-05T00:07:46.301Z,28.42
2023-03-05T00:10:12.647Z,28.29
2023-03-05T00:12:39.017Z,28.27
2023-03-05T00:15:05.326Z,28.39
2023-03-05T00:17:31.663Z,28.20
2023-03-05T00:19:57.978Z,27.91
2023-03-05T00:22:24.337Z,28.00
2023-03-05T00:24:50.664Z,27.88
2023-03-05T00:27:17.010Z,28.27
2023-03-05T00:29:43.413Z,28.32
2023-03-05T00:32:09.876Z,28.41
2023-03-05T00:34:36.218Z,28.28
2023-03-05T00:37:02.632Z,28.52
2023-03-05T00:39:29.008Z,28.32
2023-03-05T00:41:55.365Z,28.54
2023-03-05T00:44:21.701Z,28.19
2023-03-05T00:46:48.101Z,28.34
2023-03-05T00:49:14.521Z,28.33
2023-03-05T00:51:40.928Z,28.49
2023-03-05T00:54:07.262Z,28.53
2023-03-05T00:56:33.604Z,28.61
2023-03-05T00:58:59.988Z,28.53
2023-03-05T01:01:26.310Z,28.45
2023-03-05T01:03:52.684Z,28.83
2023-03-05T01:06:19.078Z,28.51
2023-03-05T01:08:45.387Z,28.75
2023-03-05T01:11:11.693Z,28.64
2023-03-05T01:13:38.098Z,28.51
2023-03-05T01:16:04.489Z,28.93
2023-03-05T01:18:30.839Z,29.07
2023-03-05T01:20:57.142Z,28.39
2023-03-05T01:23:23.498Z,28.68
2023-03-05T01:25:49.796Z,28.41
2023-03-05T01:28:16.172Z,28.84
2023-03-05T01:30:42.498Z,28.61
2023-03-05T01:33:08.849Z,28.82
2023-03-05T01:35:35.185Z,28.87
2023-03-05T01:38:01.530Z,28.70
2023-03-05T01:40:27.925Z,28.88
2023-03-05T01:42:54.279Z,28.83
2023-03-05T01:45:20.621Z,28.87
2023-03-05T01:47:46.952Z,29.04
2023-03-05T01:50:13.290Z,28.90
2023-03-05T01:52:39.603Z,28.78
2023-03-05T01:55:06.018Z,28.75
2023-03-05T01:57:32.321Z,29.03
2023-03-05T01:59:58.633Z,28.87
2023-03-05T02:02:25.043Z,28.99
2023-03-05T02:04:51.384Z,29.14
2023-03-05T02:07:17.772Z,28.81
2023-03-05T02:09:44.106Z,29.00
2023-03-05T02:12:10.483Z,28.88
2023-03-05T02:14:36.812Z,29.26
2023-03-05T02:17:03.131Z,28.83
2023-03-05T02:19:29.503Z,28.85
2023-03-05T02:21:55.804Z,29.19
2023-03-05T02:24:22.154Z,28.88
2023-03-05T02:26:48.513Z,29.22
2023-03-05T02:29:14.881Z,28.91
2023-03-05T02:31:41.204Z,28.91
2023-03-05T02:34:07.553Z,29.19
2023-03-05T02:36:33.932Z,28.83
2023-03-05T02:39:00.265Z,28.97
2023-03-05T02:41:26.606Z,29.30
2023-03-05T02:43:52.968Z,28.87
2023-03-05T02:46:19.333Z,29.10
2023-03-05T02:48:45.664Z,29.10
2023-03-05T02:51:12.096Z,29.19
2023-03-05T02:53:38.405Z,29.52
2023-03-05T02:56:04.863Z,29.15
2023-03-05T02:58:31.173Z,29.46
2023-03-05T03:00:57.543Z,29.51
2023-03-05T03:03:23.991Z,29.29
2023-03-05T03:05:50.308Z,29.36
2023-03-05T03:08:16.600Z,29.05
2023-03-05T03:10:42.916Z,29.46
2023-03-05T03:13:09.282Z,29.38
2023-03-05T03:15:35.609Z,29.36
2023-03-05T03:18:01.917Z,29.53
2023-03-05T03:20:28.230Z,29.72
2023-03-05T03:22:54.591Z,29.60
2023-03-05T03:25:20.915Z,29.21
2023-03-05T03:27:47.234Z,29.62
2023-03-05T03:30:13.569Z,29.72
2023-03-05T03:32:39.918Z,29.57
2023-03-05T03:35:06.280Z,29.82
2023-03-05T03:37:32.595Z,29.46
2023-03-05T03:39:58.927Z,29.55
2023-03-05T03:42:25.284Z,29.69
2023-03-05T03:44:51.662Z,29.77
2023-03-05T03:47:18.018Z,29.87
2023-03-05T03:49:44.397Z,29.64
2023-03-05T03:52:10.781Z,29.79
2023-03-05T03:54:37.094Z,29.50
2023-03-05T03:57:03.442Z,29.63
2023-03-05T03:59:29.875Z,30.04
2023-03-05T04:01:56.199Z,29.71
2023-03-05T04:04:22.564Z,29.67
2023-03-05T04:06:48.949Z,29.66
2023-03-05T04:09:15.279Z,29.76
2023-03-05T04:11:41.622Z,29.56
2023-03-05T04:14:07.993Z,29.67
2023-03-05T04:16:34.332Z,29.66
2023-03-05T04:19:00.663Z,29.85
2023-03-05T04:21:27.013Z,29.87
2023-03-05T04:23:53.396Z,29.79
2023-03-05T04:26:19.777Z,29.89
2023-03-05T04:28:46.102Z,29.62
2023-03-05T04:31:12.530Z,29.84
2023-03-05T04:33:38.902Z,29.57
2023-03-05T04:36:05.322Z,29.71
2023-03-05T04:38:31.701Z,29.44
2023-03-05T04:40:58.040Z,29.77
2023-03-05T04:43:24.381Z,29.72
2023-03-05T04:45:50.752Z,29.57
2023-03-05T04:48:17.096Z,29.55
2023-03-05T04:50:43.457Z,29.98
2023-03-05T04:53:09.808Z,29.96
2023-03-05T04:55:36.151Z,29.86
2023-03-05T04:58:02.511Z,29.96
2023-03-05T05:00:28.834Z,29.76
2023-03-05T05:02:55.218Z,29.77
2023-03-05T05:05:21.632Z,29.70
2023-03-05T05:07:48.002Z,30.28
2023-03-05T05:10:14.352Z,29.75
2023-03-05T05:12:40.730Z,29.58
2023-03-05T05:15:07.048Z,29.54
2023-03-05T05:17:33.348Z,29.64
2023-03-05T05:19:59.743Z,29.88
2023-03-05T05:22:26.080Z,29.76
2023-03-05T05:24:52.462Z,29.77
2023-03-05T05:27:18.783Z,29.97
2023-03-05T05:29:45.087Z,29.99
2023-03-05T05:32:11.421Z,30.39
2023-03-05T05:34:37.775Z,29.91
2023-03-05T05:37:04.130Z,30.11
2023-03-05T05:39:30.602Z,29.86
2023-03-05T05:41:56.931Z,29.83
2023-03-05T05:44:23.284Z,29.90
2023-03-05T05:46:49.677Z,29.82
2023-03-05T05:49:16.097Z,30.10
2023-03-05T05:51:42.421Z,30.09
2023-03-05T05:54:08.754Z,29.83
2023-03-05T05:56:35.116Z,29.90
2023-03-05T05:59:01.433Z,29.83
2023-03-05T06:01:27.779Z,29.92
2023-03-05T06:03:54.108Z,30.25
2023-03-05T06:06:20.434Z,30.09
2023-03-05T06:08:46.812Z,30.17
2023-03-05T06:11:13.127Z,29.75
2023-03-05T06:13:39.489Z,29.75
2023-03-05T06:16:05.858Z,30.06
2023-03-05T06:18:32.210Z,30.15
2023-03-05T06:20:58.522Z,29.90
2023-03-05T06:23:24.850Z,29.89
2023-03-05T06:25:51.262Z,30.27
2023-03-05T06:28:17.602Z,29.99
2023-03-05T06:30:43.951Z,29.91
2023-03-05T06:33:10.343Z,30.24
2023-03-05T06:35:37.834Z,29.64
2023-03-05T06:38:04.196Z,29.85
2023-03-05T06:40:30.574Z,30.01
2023-03-05T06:42:56.985Z,30.10
2023-03-05T06:45:23.302Z,29.77
2023-03-05T06:47:49.886Z,29.87
2023-03-05T06:50:16.256Z,30.10
2023-03-05T06:52:42.663Z,30.24
2023-03-05T06:55:08.997Z,30.06
2023-03-05T06:57:35.356Z,29.91
2023-03-05T07:00:01.746Z,30.13
2023-03-05T07:02:28.176Z,29.96
2023-03-05T07:04:54.556Z,30.26
2023-03-05T07:07:20.904Z,30.31
2023-03-05T07:09:47.224Z,29.82
2023-03-05T07:12:13.532Z,30.24
2023-03-05T07:14:39.887Z,30.21
2023-03-05T07:17:06.259Z,29.98
2023-03-05T07:19:32.612Z,30.33
2023-03-05T07:21:58.981Z,30.54
2023-03-05T07:24:25.296Z,30.70
2023-03-05T07:26:51.698Z,30.29
2023-03-05T07:29:18.043Z,30.24
2023-03-05T07:31:44.352Z,30.21
2023-03-05T07:34:10.666Z,30.35
2023-03-05T07:36:37.054Z,30.15
2023-03-05T07:39:03.376Z,30.09
2023-03-05T07:41:29.688Z,29.93
2023-03-05T07:43:56.077Z,30.29
2023-03-05T07:46:22.494Z,30.13
2023-03-05T07:48:48.951Z,30.05
2023-03-05T07:51:15.302Z,30.19
2023-03-05T07:53:41.597Z,30.46
2023-03-05T07:56:07.924Z,30.63
2023-03-05T07:58:34.249Z,30.16
2023-03-05T08:01:00.552Z,30.11
2023-03-05T08:03:26.901Z,30.19
2023-03-05T08:05:53.281Z,30.27
2023-03-05T08:08:19.627Z,30.08
2023-03-05T08:10:45.972Z,30.21
2023-03-05T08:13:12.331Z,29.96
2023-03-05T08:15:38.725Z,30.26
2023-03-05T08:18:05.109Z,30.08
2023-03-05T08:20:31.406Z,30.49
2023-03-05T08:22:57.792Z,30.32
2023-03-05T08:25:24.120Z,30.02
2023-03-05T08:27:50.472Z,30.25
2023-03-05T08:30:16.851Z,29.84
2023-03-05T08:32:43.211Z,30.03
2023-03-05T08:35:09.609Z,30.26
2023-03-05T08:37:35.978Z,30.20
2023-03-05T08:40:02.301Z,29.97
2023-03-05T08:42:28.681Z,29.92
2023-03-05T08:44:55.086Z,30.23
2023-03-05T08:47:21.465Z,30.47
2023-03-05T08:49:47.946Z,30.31
2023-03-05T08:52:14.302Z,30.64
2023-03-05T08:54:40.671Z,30.10
2023-03-05T08:57:07.063Z,30.22
2023-03-05T08:59:33.411Z,30.26
2023-03-05T09:01:59.722Z,30.42
2023-03-05T09:04:26.082Z,30.32
2023-03-05T09:06:52.400Z,30.18
2023-03-05T09:09:18.730Z,30.22
2023-03-05T09:11:45.109Z,31.20
2023-03-05T09:14:11.423Z,32.38
2023-03-05T09:16:37.824Z,31.85
2023-03-05T09:19:04.234Z,32.60
2023-03-05T09:21:30.604Z,32.17
2023-03-05T09:23:56.972Z,32.31
2023-03-05T09:26:23.316Z,32.04
2023-03-05T09:28:49.635Z,31.88
2023-03-05T09:31:16.137Z,33.38
2023-03-05T09:33:42.520Z,33.24
2023-03-05T09:36:08.825Z,33.94
2023-03-05T09:38:35.187Z,32.15
2023-03-05T09:41:01.494Z,31.96
2023-03-05T09:43:27.856Z,32.18
2023-03-05T09:45:54.244Z,35.14
2023-03-05T09:48:20.659Z,35.52
2023-03-05T09:50:47.023Z,35.09
2023-03-05T09:53:13.379Z,34.87
2023-03-05T09:55:39.892Z,34.16
2023-03-05T09:58:06.193Z,33.15
2023-03-05T10:00:32.623Z,33.18
2023-03-05T10:02:59.073Z,32.59
2023-03-05T10:05:25.396Z,32.65
2023-03-05T10:07:51.754Z,32.78
2023-03-05T10:10:18.153Z,35.10
2023-03-05T10:12:44.508Z,39.03
2023-03-05T10:15:10.862Z,40.05
2023-03-05T10:17:37.184Z,40.56
2023-03-05T10:20:03.565Z,39.58
2023-03-05T10:22:29.992Z,39.22
2023-03-05T10:24:56.340Z,38.64
2023-03-05T10:27:22.763Z,38.58
2023-03-05T10:29:49.099Z,38.43
2023-03-05T10:32:15.587Z,34.82
2023-03-05T10:34:41.946Z,33.42
2023-03-05T10:37:08.296Z,33.11
2023-03-05T10:39:34.662Z,32.90
2023-03-05T10:42:00.978Z,32.23
2023-03-05T10:44:27.271Z,32.24
2023-03-05T10:46:55.175Z,32.45
2023-03-05T10:49:22.295Z,32.19
2023-03-05T10:51:48.632Z,31.92
2023-03-05T10:54:14.980Z,31.46
2023-03-05T10:56:41.332Z,31.73
2023-03-05T10:59:07.689Z,31.87
2023-03-05T11:01:34.100Z,31.12
2023-03-05T11:04:00.547Z,31.36
2023-03-05T11:06:26.973Z,31.80
2023-03-05T11:08:53.437Z,32.20
2023-03-05T11:11:19.803Z,32.65
2023-03-05T11:13:46.214Z,35.45
2023-03-05T11:16:12.593Z,35.22
2023-03-05T11:18:39.024Z,35.18
2023-03-05T11:21:05.374Z,33.89
2023-03-05T11:23:31.747Z,33.96
2023-03-05T11:25:58.058Z,34.52
2023-03-05T11:28:32.968Z,34.31
2023-03-05T11:31:00.172Z,34.13
2023-03-05T11:33:26.614Z,34.38
2023-03-05T11:35:53.082Z,34.31
2023-03-05T11:38:19.511Z,33.08
2023-03-05T11:40:45.881Z,33.61
2023-03-05T11:43:12.202Z,33.96
2023-03-05T11:45:38.618Z,34.29
2023-03-05T11:48:05.030Z,33.78
2023-03-05T11:50:31.373Z,33.67
2023-03-05T11:52:57.781Z,32.86
2023-03-05T11:55:24.101Z,32.44
2023-03-05T11:57:50.507Z,32.29
2023-03-05T12:00:16.890Z,33.19
2023-03-05T12:02:43.326Z,30.58
2023-03-05T12:05:09.781Z,30.37
2023-03-05T12:07:36.163Z,30.44
2023-03-05T12:10:02.570Z,29.75
2023-03-05T12:12:29.075Z,29.99
2023-03-05T12:14:55.410Z,29.86
2023-03-05T12:17:21.815Z,30.06
2023-03-05T12:19:48.294Z,30.25
2023-03-05T12:22:14.670Z,29.94
2023-03-05T12:24:41.072Z,29.58
2023-03-05T12:27:07.542Z,29.90
2023-03-05T12:29:33.918Z,30.00
2023-03-05T12:32:00.369Z,29.71
2023-03-05T12:34:26.879Z,29.53
2023-03-05T12:36:53.414Z,29.82
2023-03-05T12:39:19.823Z,29.74
2023-03-05T12:41:46.183Z,29.51
2023-03-05T12:44:12.547Z,29.74
2023-03-05T12:46:38.959Z,29.71
2023-03-05T12:49:05.377Z,29.29
2023-03-05T12:51:31.779Z,29.79
2023-03-05T12:53:58.077Z,29.60
2023-03-05T12:56:24.378Z,29.79
2023-03-05T12:58:50.765Z,29.95
2023-03-05T13:01:17.083Z,30.14
2023-03-05T13:03:43.457Z,30.22
2023-03-05T13:06:09.857Z,29.86
2023-03-05T13:08:36.222Z,29.93
2023-03-05T13:11:02.561Z,30.13
2023-03-05T13:13:28.958Z,30.14
2023-03-05T13:15:55.311Z,29.82
2023-03-05T13:18:21.632Z,29.66
2023-03-05T13:20:47.951Z,29.66
2023-03-05T13:23:14.321Z,30.00
2023-03-05T13:25:40.654Z,29.92
2023-03-05T13:28:06.962Z,29.99
2023-03-05T13:30:34.733Z,29.60
2023-03-05T13:33:01.169Z,29.35
2023-03-05T13:35:27.501Z,29.75
2023-03-05T13:37:53.815Z,29.52
2023-03-05T13:40:20.151Z,29.32
2023-03-05T13:42:46.536Z,29.54
2023-03-05T13:45:12.892Z,29.26
2023-03-05T13:47:39.191Z,29.11
2023-03-05T13:50:05.507Z,29.42
2023-03-05T13:52:31.827Z,29.31
2023-03-05T13:54:58.130Z,29.31
2023-03-05T13:57:24.444Z,29.08
2023-03-05T13:59:50.819Z,29.37
2023-03-05T14:02:17.190Z,29.13
2023-03-05T14:04:43.666Z,29.27
2023-03-05T14:07:10.078Z,29.03
2023-03-05T14:09:36.375Z,28.80
2023-03-05T14:12:02.737Z,28.81
2023-03-05T14:14:29.138Z,28.80
2023-03-05T14:16:55.726Z,28.87
2023-03-05T14:19:22.084Z,28.81
2023-03-05T14:21:48.409Z,28.83
2023-03-05T14:24:14.795Z,28.49
2023-03-05T14:26:41.182Z,28.86
2023-03-05T14:29:07.556Z,28.30
2023-03-05T14:31:33.926Z,28.46
2023-03-05T14:34:00.309Z,28.61
2023-03-05T14:36:26.674Z,28.61
2023-03-05T14:38:53.012Z,28.30
2023-03-05T14:41:19.400Z,28.08
2023-03-05T14:43:45.747Z,28.63
2023-03-05T14:46:13.429Z,28.33
2023-03-05T14:48:39.962Z,28.08
2023-03-05T14:51:06.330Z,28.44
2023-03-05T14:53:32.678Z,28.24
2023-03-05T14:55:58.997Z,28.26
2023-03-05T14:58:25.346Z,28.32
2023-03-05T15:00:51.699Z,28.18
2023-03-05T15:03:18.034Z,28.11
2023-03-05T15:05:44.387Z,28.00
2023-03-05T15:08:10.845Z,27.98
2023-03-05T15:10:37.143Z,28.48
2023-03-05T15:13:03.454Z,28.22
2023-03-05T15:15:29.860Z,28.28
2023-03-05T15:17:56.220Z,28.03
2023-03-05T15:20:22.537Z,28.13
2023-03-05T15:22:48.864Z,27.88
2023-03-05T15:25:15.172Z,27.94
2023-03-05T15:27:41.504Z,28.26
2023-03-05T15:30:07.852Z,28.14
2023-03-05T15:32:34.216Z,27.98
2023-03-05T15:35:00.599Z,28.18
2023-03-05T15:37:26.905Z,27.79
2023-03-05T15:39:53.236Z,27.90
2023-03-05T15:42:19.553Z,28.14
2023-03-05T15:44:45.867Z,28.16
2023-03-05T15:47:12.201Z,28.19
2023-03-05T15:49:38.518Z,28.04
2023-03-05T15:52:04.814Z,27.70
2023-03-05T15:54:31.130Z,28.40
2023-03-05T15:56:57.437Z,28.02
2023-03-05T15:59:23.737Z,28.20
2023-03-05T16:01:50.085Z,27.87
2023-03-05T16:04:16.437Z,28.02
2023-03-05T16:06:42.801Z,28.04
2023-03-05T16:09:09.127Z,27.70
2023-03-05T16:11:35.479Z,27.88
2023-03-05T16:14:01.855Z,27.82
2023-03-05T16:16:28.212Z,27.73
2023-03-05T16:18:54.603Z,27.67
2023-03-05T16:21:20.959Z,27.93
2023-03-05T16:23:47.384Z,28.06
2023-03-05T16:26:13.724Z,27.79
2023-03-05T16:28:40.087Z,27.71
2023-03-05T16:31:06.545Z,27.76
2023-03-05T16:33:32.952Z,28.08
2023-03-05T16:35:59.350Z,27.99
2023-03-05T16:38:25.744Z,27.95
2023-03-05T16:41:07.214Z,27.96
2023-03-05T16:43:34.012Z,27.82
2023-03-05T16:46:00.327Z,27.85
2023-03-05T16:48:26.655Z,28.09
2023-03-05T16:50:53.002Z,27.60
2023-03-05T16:53:19.371Z,27.88
2023-03-05T16:55:45.680Z,27.73
2023-03-05T16:58:12.005Z,27.89
2023-03-05T17:00:38.393Z,27.91
2023-03-05T17:03:04.830Z,27.75
2023-03-05T17:05:31.229Z,28.08
2023-03-05T17:07:57.610Z,29.00
2023-03-05T17:10:23.926Z,29.94
2023-03-05T17:12:50.264Z,29.50
2023-03-05T17:15:16.638Z,29.94
2023-03-05T17:17:43.012Z,30.89
2023-03-05T17:20:09.343Z,30.66
2023-03-05T17:22:35.682Z,30.81
2023-03-05T17:25:01.997Z,30.60
2023-03-05T17:27:28.311Z,29.74
2023-03-05T17:29:54.700Z,29.37
2023-03-05T17:32:21.089Z,29.05
2023-03-05T17:34:47.440Z,28.91
2023-03-05T17:37:13.803Z,28.70
2023-03-05T17:39:40.118Z,28.81
2023-03-05T17:42:06.473Z,28.49
2023-03-05T17:44:32.964Z,28.34
2023-03-05T17:46:59.374Z,28.47
2023-03-05T17:49:25.719Z,28.47
2023-03-05T17:51:52.031Z,28.60
2023-03-05T17:54:18.359Z,28.49
2023-03-05T17:56:44.660Z,28.55
2023-03-05T17:59:11.007Z,28.49
2023-03-05T18:01:37.405Z,28.44
2023-03-05T18:04:04.043Z,28.60
2023-03-05T18:06:30.457Z,28.45
2023-03-05T18:08:56.932Z,28.27
2023-03-05T18:11:23.266Z,28.22
2023-03-05T18:13:49.615Z,27.99
2023-03-05T18:16:15.986Z,28.18
2023-03-05T18:18:42.405Z,28.12
2023-03-05T18:21:08.806Z,28.20
2023-03-05T18:23:35.168Z,28.28
2023-03-05T18:26:01.574Z,28.45
2023-03-05T18:28:27.969Z,28.71
2023-03-05T18:30:54.396Z,29.79
2023-03-05T18:33:20.720Z,30.99
2023-03-05T18:35:47.189Z,30.01
2023-03-05T18:38:13.504Z,30.27
2023-03-05T18:40:39.884Z,30.50
2023-03-05T18:43:06.259Z,30.69
2023-03-05T18:45:32.617Z,30.49
2023-03-05T18:47:59.005Z,30.52
2023-03-05T18:50:25.378Z,30.38
2023-03-05T18:52:51.794Z,30.16
2023-03-05T18:55:18.177Z,30.14
2023-03-05T18:57:44.563Z,30.02
2023-03-05T19:00:10.918Z,29.89
2023-03-05T19:02:37.284Z,29.70
2023-03-05T19:05:03.596Z,29.84
2023-03-05T19:07:30.041Z,31.30
2023-03-05T19:09:59.363Z,30.84
2023-03-05T19:12:25.856Z,30.17
2023-03-05T19:14:52.204Z,30.21
2023-03-05T19:17:18.587Z,30.41
2023-03-05T19:19:44.910Z,29.84
2023-03-05T19:22:11.274Z,29.94
2023-03-05T19:24:37.593Z,29.79
2023-03-05T19:27:04.069Z,29.81
2023-03-05T19:29:32.803Z,29.56
2023-03-05T19:31:59.274Z,29.94
2023-03-05T19:34:25.658Z,29.48
2023-03-05T19:36:52.029Z,29.24
2023-03-05T19:39:18.388Z,29.23
2023-03-05T19:41:44.748Z,28.96
2023-03-05T19:44:11.198Z,28.85
2023-03-05T19:46:37.550Z,29.12
2023-03-05T19:49:03.897Z,28.87
2023-03-05T19:51:30.234Z,28.57
2023-03-05T19:53:56.529Z,29.07
2023-03-05T19:56:22.891Z,28.47
2023-03-05T19:58:49.307Z,28.54
2023-03-05T20:01:15.670Z,28.37
2023-03-05T20:03:42.037Z,28.39
2023-03-05T20:06:08.343Z,28.48
2023-03-05T20:08:34.663Z,28.68
2023-03-05T20:11:01.025Z,28.82
2023-03-05T20:13:27.433Z,28.51
2023-03-05T20:15:53.845Z,28.65
2023-03-05T20:18:20.232Z,28.79
2023-03-05T20:20:46.578Z,28.39
2023-03-05T20:23:12.936Z,28.79
2023-03-05T20:25:39.303Z,28.63
2023-03-05T20:28:05.628Z,28.53
2023-03-05T20:30:32.003Z,28.54
2023-03-05T20:32:58.324Z,28.52
2023-03-05T20:35:24.677Z,28.77
2023-03-05T20:37:51.045Z,28.51
2023-03-05T20:40:17.446Z,28.47
2023-03-05T20:42:43.992Z,28.75
2023-03-05T20:45:10.403Z,28.58
2023-03-05T20:47:36.786Z,28.44
2023-03-05T20:50:03.148Z,28.40
2023-03-05T20:52:29.486Z,28.59
2023-03-05T20:54:55.794Z,28.31
2023-03-05T20:57:22.133Z,28.54
2023-03-05T20:59:48.479Z,28.61
2023-03-05T21:02:14.902Z,28.80
2023-03-05T21:04:41.250Z,28.72
2023-03-05T21:07:07.598Z,28.60
2023-03-05T21:09:33.968Z,28.67
2023-03-05T21:12:00.319Z,28.44
2023-03-05T21:14:26.689Z,28.38
2023-03-05T21:16:53.017Z,28.18
2023-03-05T21:19:19.484Z,28.43
2023-03-05T21:21:45.820Z,28.52
2023-03-05T21:24:12.624Z,28.28
2023-03-05T21:26:38.986Z,28.31
2023-03-05T21:29:05.320Z,28.55
2023-03-05T21:31:31.641Z,28.40
2023-03-05T21:33:58.040Z,28.53
2023-03-05T21:36:24.374Z,28.67
2023-03-05T21:38:50.675Z,28.35
2023-03-05T21:41:17.012Z,28.64
2023-03-05T21:43:43.339Z,28.33
2023-03-05T21:46:09.728Z,28.70
2023-03-05T21:48:36.127Z,28.35
2023-03-05T21:51:02.488Z,28.68
2023-03-05T21:53:28.785Z,28.51
2023-03-05T21:55:55.119Z,28.40
2023-03-05T21:58:21.416Z,28.55
2023-03-05T22:00:47.793Z,28.37
2023-03-05T22:03:14.225Z,28.29
2023-03-05T22:05:40.578Z,28.58
2023-03-05T22:08:06.940Z,28.27
2023-03-05T22:10:33.324Z,28.62
2023-03-05T22:12:59.637Z,28.56
2023-03-05T22:15:25.964Z,28.76
2023-03-05T22:17:52.430Z,28.62
2023-03-05T22:20:18.732Z,28.67
2023-03-05T22:22:45.031Z,28.71
2023-03-05T22:25:11.378Z,28.78
2023-03-05T22:27:37.735Z,28.70
2023-03-05T22:30:04.104Z,28.59
2023-03-05T22:32:30.507Z,28.51
2023-03-05T22:34:56.878Z,28.58
2023-03-05T22:37:23.205Z,28.59
2023-03-05T22:39:49.652Z,28.56
2023-03-05T22:42:16.016Z,28.65
2023-03-05T22:44:42.381Z,28.51
2023-03-05T22:47:08.764Z,28.73
2023-03-05T22:49:35.127Z,28.74
2023-03-05T22:52:01.527Z,28.54
2023-03-05T22:54:27.870Z,28.42
2023-03-05T22:56:54.220Z,28.76
2023-03-05T22:59:20.618Z,28.83
2023-03-05T23:01:47.111Z,28.66
2023-03-05T23:04:13.512Z,28.80
2023-03-05T23:06:39.903Z,28.65
2023-03-05T23:09:06.248Z,28.49
2023-03-05T23:11:32.601Z,28.98
2023-03-05T23:13:58.926Z,28.92
2023-03-05T23:16:25.237Z,28.87
2023-03-05T23:18:51.580Z,28.56
2023-03-05T23:21:17.916Z,28.75
2023-03-05T23:23:44.298Z,28.72
2023-03-05T23:26:10.685Z,28.94
2023-03-05T23:28:36.996Z,28.76
2023-03-05T23:31:03.336Z,28.71
2023-03-05T23:33:29.721Z,28.81
2023-03-05T23:35:56.117Z,28.58
2023-03-05T23:38:22.488Z,29.02
2023-03-05T23:40:48.803Z,29.09
2023-03-05T23:43:15.135Z,28.79
2023-03-05T23:45:41.484Z,28.81
2023-03-05T23:48:07.801Z,28.85
2023-03-05T23:50:34.102Z,28.77
2023-03-05T23:53:02.021Z,28.95
2023-03-05T23:55:28.688Z,29.15
2023-03-05T23:57:55.074Z,28.92
